sensor_id;sensor_type;location;lat;lon;timestamp;pressure;altitude;pressure_sealevel;temperature;humidity
9035;BME280;4552;43.422;24.592;2022-10-16T00:00:45;100710.84;;;7.89;95.58
9035;BME280;4552;43.422;24.592;2022-10-16T00:03:12;100712.41;;;7.72;95.23
9035;BME280;4552;43.422;24.592;2022-10-16T00:05:40;100718.47;;;7.68;95.81
9035;BME280;4552;43.422;24.592;2022-10-16T00:08:08;100726.28;;;7.67;95.92
9035;BME280;4552;43.422;24.592;2022-10-16T00:10:36;100730.59;;;7.68;95.97
9035;BME280;4552;43.422;24.592;2022-10-16T00:13:05;100725.38;;;7.65;94.88
9035;BME280;4552;43.422;24.592;2022-10-16T00:15:34;100717.50;;;7.60;94.84
9035;BME280;4552;43.422;24.592;2022-10-16T00:18:03;100727.19;;;7.72;95.40
9035;BME280;4552;43.422;24.592;2022-10-16T00:20:30;100721.22;;;7.82;96.18
9035;BME280;4552;43.422;24.592;2022-10-16T00:23:00;100729.97;;;7.90;94.76
9035;BME280;4552;43.422;24.592;2022-10-16T00:25:28;100727.44;;;7.97;94.92
9035;BME280;4552;43.422;24.592;2022-10-16T00:27:58;100729.25;;;8.06;94.79
9035;BME280;4552;43.422;24.592;2022-10-16T00:30:28;100730.75;;;7.83;95.64
9035;BME280;4552;43.422;24.592;2022-10-16T00:32:55;100730.91;;;7.98;94.85
9035;BME280;4552;43.422;24.592;2022-10-16T00:35:24;100725.66;;;7.95;94.23
9035;BME280;4552;43.422;24.592;2022-10-16T00:37:51;100728.94;;;7.73;94.10
9035;BME280;4552;43.422;24.592;2022-10-16T00:40:18;100723.75;;;7.76;95.17
9035;BME280;4552;43.422;24.592;2022-10-16T00:42:46;100730.50;;;7.59;95.32
9035;BME280;4552;43.422;24.592;2022-10-16T00:45:13;100733.00;;;7.48;96.98
9035;BME280;4552;43.422;24.592;2022-10-16T00:47:45;100744.22;;;7.43;98.06
9035;BME280;4552;43.422;24.592;2022-10-16T00:50:18;100736.38;;;7.40;96.70
9035;BME280;4552;43.422;24.592;2022-10-16T00:52:51;100741.50;;;7.34;95.70
9035;BME280;4552;43.422;24.592;2022-10-16T00:55:19;100749.16;;;7.22;96.10
9035;BME280;4552;43.422;24.592;2022-10-16T00:57:46;100740.41;;;7.15;96.14
9035;BME280;4552;43.422;24.592;2022-10-16T01:00:20;100739.59;;;7.21;96.30
9035;BME280;4552;43.422;24.592;2022-10-16T01:02:58;100742.91;;;7.07;97.14
9035;BME280;4552;43.422;24.592;2022-10-16T01:05:31;100730.69;;;7.03;98.03
9035;BME280;4552;43.422;24.592;2022-10-16T01:08:06;100745.69;;;7.20;96.60
9035;BME280;4552;43.422;24.592;2022-10-16T01:10:38;100740.22;;;7.01;96.72
9035;BME280;4552;43.422;24.592;2022-10-16T01:13:10;100739.97;;;6.85;96.82
9035;BME280;4552;43.422;24.592;2022-10-16T01:15:42;100747.06;;;6.93;98.05
9035;BME280;4552;43.422;24.592;2022-10-16T01:18:18;100716.63;;;6.89;98.86
9035;BME280;4552;43.422;24.592;2022-10-16T01:20:49;100740.22;;;7.01;98.76
9035;BME280;4552;43.422;24.592;2022-10-16T01:23:29;100745.56;;;7.11;98.33
9035;BME280;4552;43.422;24.592;2022-10-16T01:26:14;100737.56;;;6.98;99.46
9035;BME280;4552;43.422;24.592;2022-10-16T01:28:51;100741.19;;;7.09;99.81
9035;BME280;4552;43.422;24.592;2022-10-16T01:31:22;100715.91;;;6.99;100.00
9035;BME280;4552;43.422;24.592;2022-10-16T01:33:57;100732.34;;;6.97;99.64
9035;BME280;4552;43.422;24.592;2022-10-16T01:36:31;100714.81;;;6.82;100.00
9035;BME280;4552;43.422;24.592;2022-10-16T01:39:03;100745.41;;;7.01;100.00
9035;BME280;4552;43.422;24.592;2022-10-16T01:41:32;100753.19;;;7.00;100.00
9035;BME280;4552;43.422;24.592;2022-10-16T01:44:04;100756.66;;;6.99;99.88
9035;BME280;4552;43.422;24.592;2022-10-16T01:46:32;100760.97;;;6.97;98.57
9035;BME280;4552;43.422;24.592;2022-10-16T01:49:02;100758.34;;;6.95;98.27
9035;BME280;4552;43.422;24.592;2022-10-16T01:51:30;100748.78;;;6.94;98.53
9035;BME280;4552;43.422;24.592;2022-10-16T01:54:01;100755.84;;;7.04;98.92
9035;BME280;4552;43.422;24.592;2022-10-16T01:56:29;100746.19;;;6.94;98.42
9035;BME280;4552;43.422;24.592;2022-10-16T01:58:59;100759.25;;;6.97;96.63
9035;BME280;4552;43.422;24.592;2022-10-16T02:01:31;100760.03;;;6.90;95.88
9035;BME280;4552;43.422;24.592;2022-10-16T02:04:03;100761.59;;;6.79;96.49
9035;BME280;4552;43.422;24.592;2022-10-16T02:06:34;100761.41;;;6.66;96.99
9035;BME280;4552;43.422;24.592;2022-10-16T02:09:01;100757.94;;;6.68;97.04
9035;BME280;4552;43.422;24.592;2022-10-16T02:11:28;100765.09;;;6.81;97.38
9035;BME280;4552;43.422;24.592;2022-10-16T02:14:02;100765.66;;;6.62;98.00
9035;BME280;4552;43.422;24.592;2022-10-16T02:16:38;100741.97;;;6.44;98.72
9035;BME280;4552;43.422;24.592;2022-10-16T02:19:07;100762.16;;;6.60;99.39
9035;BME280;4552;43.422;24.592;2022-10-16T02:21:40;100768.16;;;6.55;100.00
9035;BME280;4552;43.422;24.592;2022-10-16T02:24:13;100765.44;;;6.47;100.00
9035;BME280;4552;43.422;24.592;2022-10-16T02:26:49;100778.75;;;6.68;100.00
9035;BME280;4552;43.422;24.592;2022-10-16T02:29:21;100787.44;;;6.69;100.00
9035;BME280;4552;43.422;24.592;2022-10-16T02:31:53;100784.97;;;6.76;100.00
9035;BME280;4552;43.422;24.592;2022-10-16T02:34:24;100778.91;;;6.77;99.82
9035;BME280;4552;43.422;24.592;2022-10-16T02:36:54;100782.91;;;6.57;98.01
9035;BME280;4552;43.422;24.592;2022-10-16T02:39:22;100798.56;;;6.60;98.27
9035;BME280;4552;43.422;24.592;2022-10-16T02:41:50;100793.28;;;6.54;98.58
9035;BME280;4552;43.422;24.592;2022-10-16T02:44:17;100789.88;;;6.57;98.45
9035;BME280;4552;43.422;24.592;2022-10-16T02:46:46;100795.09;;;6.58;98.53
9035;BME280;4552;43.422;24.592;2022-10-16T02:49:14;100799.44;;;6.61;99.43
9035;BME280;4552;43.422;24.592;2022-10-16T02:51:42;100784.50;;;6.46;99.33
9035;BME280;4552;43.422;24.592;2022-10-16T02:54:09;100802.75;;;6.49;98.25
9035;BME280;4552;43.422;24.592;2022-10-16T02:56:36;100804.34;;;6.43;98.07
9035;BME280;4552;43.422;24.592;2022-10-16T02:59:03;100799.91;;;6.37;97.59
9035;BME280;4552;43.422;24.592;2022-10-16T03:01:30;100785.78;;;6.20;98.51
9035;BME280;4552;43.422;24.592;2022-10-16T03:03:58;100779.56;;;6.12;99.89
9035;BME280;4552;43.422;24.592;2022-10-16T03:06:26;100782.31;;;6.21;100.00
9035;BME280;4552;43.422;24.592;2022-10-16T03:08:53;100806.06;;;6.42;100.00
9035;BME280;4552;43.422;24.592;2022-10-16T03:11:21;100813.78;;;6.36;99.96
9035;BME280;4552;43.422;24.592;2022-10-16T03:13:48;100798.88;;;6.26;99.48
9035;BME280;4552;43.422;24.592;2022-10-16T03:16:15;100805.88;;;6.30;100.00
9035;BME280;4552;43.422;24.592;2022-10-16T03:18:42;100801.50;;;6.28;100.00
9035;BME280;4552;43.422;24.592;2022-10-16T03:21:09;100803.28;;;6.32;100.00
9035;BME280;4552;43.422;24.592;2022-10-16T03:23:37;100793.72;;;6.28;100.00
9035;BME280;4552;43.422;24.592;2022-10-16T03:26:05;100806.84;;;6.37;100.00
9035;BME280;4552;43.422;24.592;2022-10-16T03:28:32;100811.28;;;6.44;100.00
9035;BME280;4552;43.422;24.592;2022-10-16T03:30:59;100799.97;;;6.40;98.68
9035;BME280;4552;43.422;24.592;2022-10-16T03:33:27;100808.72;;;6.45;97.90
9035;BME280;4552;43.422;24.592;2022-10-16T03:35:55;100822.69;;;6.50;96.76
9035;BME280;4552;43.422;24.592;2022-10-16T03:38:22;100811.97;;;6.32;96.46
9035;BME280;4552;43.422;24.592;2022-10-16T03:40:51;100825.91;;;6.37;96.29
9035;BME280;4552;43.422;24.592;2022-10-16T03:43:19;100822.31;;;6.29;97.53
9035;BME280;4552;43.422;24.592;2022-10-16T03:45:47;100829.25;;;6.30;98.10
9035;BME280;4552;43.422;24.592;2022-10-16T03:48:13;100822.22;;;6.23;98.75
9035;BME280;4552;43.422;24.592;2022-10-16T03:50:41;100821.19;;;6.15;98.45
9035;BME280;4552;43.422;24.592;2022-10-16T03:53:07;100834.31;;;6.21;97.88
9035;BME280;4552;43.422;24.592;2022-10-16T03:55:35;100817.53;;;6.04;97.71
9035;BME280;4552;43.422;24.592;2022-10-16T03:58:04;100816.50;;;5.96;99.72
9035;BME280;4552;43.422;24.592;2022-10-16T04:00:31;100824.47;;;6.05;100.00
9035;BME280;4552;43.422;24.592;2022-10-16T04:02:58;100843.00;;;6.23;100.00
9035;BME280;4552;43.422;24.592;2022-10-16T04:05:25;100828.78;;;6.03;100.00
9035;BME280;4552;43.422;24.592;2022-10-16T04:07:52;100806.03;;;5.92;100.00
9035;BME280;4552;43.422;24.592;2022-10-16T04:10:21;100831.34;;;6.02;100.00
9035;BME280;4552;43.422;24.592;2022-10-16T04:12:48;100823.47;;;5.97;100.00
9035;BME280;4552;43.422;24.592;2022-10-16T04:15:17;100844.44;;;6.08;100.00
9035;BME280;4552;43.422;24.592;2022-10-16T04:17:45;100832.56;;;6.20;100.00
9035;BME280;4552;43.422;24.592;2022-10-16T04:20:12;100829.84;;;6.14;100.00
9035;BME280;4552;43.422;24.592;2022-10-16T04:22:40;100833.69;;;6.36;100.00
9035;BME280;4552;43.422;24.592;2022-10-16T04:25:08;100817.94;;;6.27;100.00
9035;BME280;4552;43.422;24.592;2022-10-16T04:27:35;100815.19;;;6.19;100.00
9035;BME280;4552;43.422;24.592;2022-10-16T04:30:03;100832.66;;;6.26;100.00
9035;BME280;4552;43.422;24.592;2022-10-16T04:32:32;100815.31;;;6.25;100.00
9035;BME280;4552;43.422;24.592;2022-10-16T04:34:59;100829.94;;;6.19;100.00
9035;BME280;4552;43.422;24.592;2022-10-16T04:37:26;100824.84;;;6.25;100.00
9035;BME280;4552;43.422;24.592;2022-10-16T04:39:54;100821.00;;;6.05;100.00
9035;BME280;4552;43.422;24.592;2022-10-16T04:42:21;100814.25;;;6.14;99.75
9035;BME280;4552;43.422;24.592;2022-10-16T04:44:48;100842.41;;;6.38;98.97
9035;BME280;4552;43.422;24.592;2022-10-16T04:47:17;100840.28;;;6.66;99.08
9035;BME280;4552;43.422;24.592;2022-10-16T04:49:45;100841.44;;;6.83;97.56
9035;BME280;4552;43.422;24.592;2022-10-16T04:52:12;100841.44;;;6.83;96.75
9035;BME280;4552;43.422;24.592;2022-10-16T04:54:39;100857.75;;;6.73;96.59
9035;BME280;4552;43.422;24.592;2022-10-16T04:57:07;100860.84;;;6.53;96.64
9035;BME280;4552;43.422;24.592;2022-10-16T04:59:34;100863.44;;;6.53;96.41
9035;BME280;4552;43.422;24.592;2022-10-16T05:02:01;100857.69;;;6.21;96.61
9035;BME280;4552;43.422;24.592;2022-10-16T05:04:28;100847.03;;;6.06;98.07
9035;BME280;4552;43.422;24.592;2022-10-16T05:06:59;100849.56;;;6.03;98.99
9035;BME280;4552;43.422;24.592;2022-10-16T05:09:26;100869.53;;;6.07;98.76
9035;BME280;4552;43.422;24.592;2022-10-16T05:11:56;100867.75;;;6.03;99.13
9035;BME280;4552;43.422;24.592;2022-10-16T05:14:23;100877.34;;;6.07;99.74
9035;BME280;4552;43.422;24.592;2022-10-16T05:16:50;100867.19;;;6.21;99.70
9035;BME280;4552;43.422;24.592;2022-10-16T05:19:18;100888.84;;;6.20;98.74
9035;BME280;4552;43.422;24.592;2022-10-16T05:21:45;100892.44;;;6.25;99.17
9035;BME280;4552;43.422;24.592;2022-10-16T05:24:14;100902.38;;;6.48;98.46
9035;BME280;4552;43.422;24.592;2022-10-16T05:26:42;100851.97;;;6.40;97.27
9035;BME280;4552;43.422;24.592;2022-10-16T05:29:09;100895.72;;;6.62;97.30
9035;BME280;4552;43.422;24.592;2022-10-16T05:31:37;100899.31;;;6.70;97.77
9035;BME280;4552;43.422;24.592;2022-10-16T05:34:04;100895.16;;;6.80;97.97
9035;BME280;4552;43.422;24.592;2022-10-16T05:36:32;100898.59;;;6.79;98.72
9035;BME280;4552;43.422;24.592;2022-10-16T05:38:59;100896.72;;;6.70;98.93
9035;BME280;4552;43.422;24.592;2022-10-16T05:41:29;100900.50;;;6.89;99.77
9035;BME280;4552;43.422;24.592;2022-10-16T05:43:56;100908.50;;;6.99;100.00
9035;BME280;4552;43.422;24.592;2022-10-16T05:46:23;100904.38;;;7.14;100.00
9035;BME280;4552;43.422;24.592;2022-10-16T05:48:51;100925.66;;;7.44;99.92
9035;BME280;4552;43.422;24.592;2022-10-16T05:51:18;100922.38;;;7.58;98.36
9035;BME280;4552;43.422;24.592;2022-10-16T05:53:45;100933.97;;;7.80;96.74
9035;BME280;4552;43.422;24.592;2022-10-16T05:56:12;100933.09;;;7.78;96.14
9035;BME280;4552;43.422;24.592;2022-10-16T05:58:42;100941.16;;;7.96;96.64
9035;BME280;4552;43.422;24.592;2022-10-16T06:01:11;100942.19;;;8.08;95.99
9035;BME280;4552;43.422;24.592;2022-10-16T06:03:39;100947.53;;;8.19;94.94
9035;BME280;4552;43.422;24.592;2022-10-16T06:06:10;100936.22;;;8.17;94.17
9035;BME280;4552;43.422;24.592;2022-10-16T06:08:39;100946.97;;;8.44;94.43
9035;BME280;4552;43.422;24.592;2022-10-16T06:11:10;100950.50;;;8.46;93.14
9035;BME280;4552;43.422;24.592;2022-10-16T06:13:38;100931.53;;;8.65;93.57
9035;BME280;4552;43.422;24.592;2022-10-16T06:16:09;100948.22;;;8.80;92.56
9035;BME280;4552;43.422;24.592;2022-10-16T06:18:37;100957.91;;;8.89;92.20
9035;BME280;4552;43.422;24.592;2022-10-16T06:21:07;100959.69;;;8.96;92.08
9035;BME280;4552;43.422;24.592;2022-10-16T06:23:35;100959.72;;;8.99;91.13
9035;BME280;4552;43.422;24.592;2022-10-16T06:26:06;100958.03;;;9.04;91.70
9035;BME280;4552;43.422;24.592;2022-10-16T06:28:33;100943.28;;;9.08;90.58
9035;BME280;4552;43.422;24.592;2022-10-16T06:31:02;100965.25;;;9.32;91.02
9035;BME280;4552;43.422;24.592;2022-10-16T06:33:31;100968.88;;;9.52;89.74
9035;BME280;4552;43.422;24.592;2022-10-16T06:36:02;100962.91;;;9.70;89.76
9035;BME280;4552;43.422;24.592;2022-10-16T06:38:30;100959.41;;;9.72;88.85
9035;BME280;4552;43.422;24.592;2022-10-16T06:40:57;100965.59;;;9.85;88.83
9035;BME280;4552;43.422;24.592;2022-10-16T06:43:28;100946.44;;;9.89;88.51
9035;BME280;4552;43.422;24.592;2022-10-16T06:45:58;100950.94;;;10.08;87.88
9035;BME280;4552;43.422;24.592;2022-10-16T06:48:27;100974.56;;;10.30;87.13
9035;BME280;4552;43.422;24.592;2022-10-16T06:50:57;100979.84;;;10.42;86.19
9035;BME280;4552;43.422;24.592;2022-10-16T06:53:24;100970.28;;;10.46;86.36
9035;BME280;4552;43.422;24.592;2022-10-16T06:55:52;100955.47;;;10.49;85.04
9035;BME280;4552;43.422;24.592;2022-10-16T06:58:20;100960.75;;;10.74;84.79
9035;BME280;4552;43.422;24.592;2022-10-16T07:00:47;100994.00;;;11.32;84.23
9035;BME280;4552;43.422;24.592;2022-10-16T07:03:15;101001.88;;;11.50;82.51
9035;BME280;4552;43.422;24.592;2022-10-16T07:05:43;101001.88;;;11.50;80.96
9035;BME280;4552;43.422;24.592;2022-10-16T07:08:12;101003.63;;;11.82;81.58
9035;BME280;4552;43.422;24.592;2022-10-16T07:10:39;101004.47;;;11.86;79.79
9035;BME280;4552;43.422;24.592;2022-10-16T07:13:06;101002.75;;;11.80;78.41
9035;BME280;4552;43.422;24.592;2022-10-16T07:15:34;101010.56;;;11.98;79.35
9035;BME280;4552;43.422;24.592;2022-10-16T07:18:02;101015.81;;;12.01;79.08
9035;BME280;4552;43.422;24.592;2022-10-16T07:20:29;101014.03;;;12.20;78.48
9035;BME280;4552;43.422;24.592;2022-10-16T07:22:56;100990.41;;;12.14;78.17
9035;BME280;4552;43.422;24.592;2022-10-16T07:25:25;101003.50;;;12.29;77.46
9035;BME280;4552;43.422;24.592;2022-10-16T07:27:52;100999.97;;;12.39;77.09
9035;BME280;4552;43.422;24.592;2022-10-16T07:30:22;101009.59;;;12.40;77.62
9035;BME280;4552;43.422;24.592;2022-10-16T07:32:51;101013.84;;;12.67;77.71
9035;BME280;4552;43.422;24.592;2022-10-16T07:35:18;101005.88;;;12.83;76.79
9035;BME280;4552;43.422;24.592;2022-10-16T07:37:45;101016.38;;;12.83;75.56
9035;BME280;4552;43.422;24.592;2022-10-16T07:40:12;101000.63;;;12.83;75.56
9035;BME280;4552;43.422;24.592;2022-10-16T07:42:41;100989.19;;;12.90;74.67
9035;BME280;4552;43.422;24.592;2022-10-16T07:45:08;100997.72;;;13.25;74.35
9035;BME280;4552;43.422;24.592;2022-10-16T07:47:35;101008.22;;;13.28;74.21
9035;BME280;4552;43.422;24.592;2022-10-16T07:50:03;100998.59;;;13.29;74.36
9035;BME280;4552;43.422;24.592;2022-10-16T07:52:30;100997.63;;;13.37;74.16
9035;BME280;4552;43.422;24.592;2022-10-16T07:54:57;100993.06;;;13.57;72.83
9035;BME280;4552;43.422;24.592;2022-10-16T07:57:24;101006.75;;;13.95;71.53
9035;BME280;4552;43.422;24.592;2022-10-16T07:59:52;100986.56;;;13.98;71.46
9035;BME280;4552;43.422;24.592;2022-10-16T08:02:19;101009.22;;;14.14;71.02
9035;BME280;4552;43.422;24.592;2022-10-16T08:04:46;101006.41;;;14.32;70.87
9035;BME280;4552;43.422;24.592;2022-10-16T08:07:13;101007.25;;;14.31;71.10
9035;BME280;4552;43.422;24.592;2022-10-16T08:09:40;101000.97;;;14.44;70.57
9035;BME280;4552;43.422;24.592;2022-10-16T08:12:10;101014.97;;;14.49;70.05
9035;BME280;4552;43.422;24.592;2022-10-16T08:14:38;101017.38;;;14.67;70.15
9035;BME280;4552;43.422;24.592;2022-10-16T08:17:07;101013.00;;;14.63;69.41
9035;BME280;4552;43.422;24.592;2022-10-16T08:19:34;101010.34;;;14.66;69.91
9035;BME280;4552;43.422;24.592;2022-10-16T08:22:01;101016.94;;;14.97;69.69
9035;BME280;4552;43.422;24.592;2022-10-16T08:24:28;101011.34;;;15.18;68.54
9035;BME280;4552;43.422;24.592;2022-10-16T08:26:56;101019.34;;;15.12;68.45
9035;BME280;4552;43.422;24.592;2022-10-16T08:29:23;101013.13;;;15.17;68.83
9035;BME280;4552;43.422;24.592;2022-10-16T08:31:54;101019.31;;;15.15;67.83
9035;BME280;4552;43.422;24.592;2022-10-16T08:34:23;101012.44;;;15.05;69.08
9035;BME280;4552;43.422;24.592;2022-10-16T08:36:53;101017.63;;;15.11;68.00
9035;BME280;4552;43.422;24.592;2022-10-16T08:39:20;101005.31;;;15.13;68.29
9035;BME280;4552;43.422;24.592;2022-10-16T08:42:11;101018.09;;;15.37;68.05
9035;BME280;4552;43.422;24.592;2022-10-16T08:47:47;100998.28;;;15.65;62.62
9035;BME280;4552;43.422;24.592;2022-10-16T08:50:22;101020.06;;;15.78;62.56
9035;BME280;4552;43.422;24.592;2022-10-16T08:52:50;101025.69;;;16.08;63.07
9035;BME280;4552;43.422;24.592;2022-10-16T08:55:29;101027.34;;;16.14;62.14
9035;BME280;4552;43.422;24.592;2022-10-16T08:57:57;101027.69;;;16.41;58.14
9035;BME280;4552;43.422;24.592;2022-10-16T09:00:27;101031.72;;;16.60;54.97
9035;BME280;4552;43.422;24.592;2022-10-16T09:03:03;101036.72;;;16.74;53.44
9035;BME280;4552;43.422;24.592;2022-10-16T09:05:57;101034.31;;;16.63;52.11
9035;BME280;4552;43.422;24.592;2022-10-16T09:08:35;101041.25;;;16.67;51.29
9035;BME280;4552;43.422;24.592;2022-10-16T09:11:14;101021.78;;;16.73;51.49
9035;BME280;4552;43.422;24.592;2022-10-16T09:13:53;101043.00;;;17.09;51.28
9035;BME280;4552;43.422;24.592;2022-10-16T09:16:27;101045.50;;;17.15;50.47
9035;BME280;4552;43.422;24.592;2022-10-16T09:19:01;101031.97;;;17.27;49.52
9035;BME280;4552;43.422;24.592;2022-10-16T09:21:36;101034.78;;;17.21;50.46
9035;BME280;4552;43.422;24.592;2022-10-16T09:24:10;101026.69;;;17.27;49.68
9035;BME280;4552;43.422;24.592;2022-10-16T09:26:39;101042.94;;;17.51;49.45
9035;BME280;4552;43.422;24.592;2022-10-16T09:29:05;101035.41;;;17.33;49.08
9035;BME280;4552;43.422;24.592;2022-10-16T09:31:36;101032.91;;;17.26;48.88
9035;BME280;4552;43.422;24.592;2022-10-16T09:34:04;101046.97;;;17.27;49.73
9035;BME280;4552;43.422;24.592;2022-10-16T09:36:39;101038.56;;;17.50;49.49
9035;BME280;4552;43.422;24.592;2022-10-16T09:39:11;101030.47;;;17.56;49.42
9035;BME280;4552;43.422;24.592;2022-10-16T09:41:40;101022.78;;;17.45;49.02
9035;BME280;4552;43.422;24.592;2022-10-16T09:44:18;101029.47;;;17.60;49.22
9035;BME280;4552;43.422;24.592;2022-10-16T09:46:47;101031.56;;;17.46;48.94
9035;BME280;4552;43.422;24.592;2022-10-16T09:49:21;101029.66;;;17.52;48.51
9035;BME280;4552;43.422;24.592;2022-10-16T09:51:51;101031.88;;;17.69;48.59
9035;BME280;4552;43.422;24.592;2022-10-16T09:54:20;101025.59;;;17.38;48.94
9035;BME280;4552;43.422;24.592;2022-10-16T09:56:48;101006.88;;;17.47;48.65
9035;BME280;4552;43.422;24.592;2022-10-16T09:59:18;101027.28;;;17.40;48.32
9035;BME280;4552;43.422;24.592;2022-10-16T10:01:47;101018.22;;;17.50;48.26
9035;BME280;4552;43.422;24.592;2022-10-16T10:04:15;101014.50;;;17.59;48.79
9035;BME280;4552;43.422;24.592;2022-10-16T10:06:44;101013.88;;;17.83;48.29
9035;BME280;4552;43.422;24.592;2022-10-16T10:09:20;101003.44;;;17.77;48.22
9035;BME280;4552;43.422;24.592;2022-10-16T10:11:52;101022.19;;;17.69;48.66
9035;BME280;4552;43.422;24.592;2022-10-16T10:14:25;101016.28;;;17.92;48.18
9035;BME280;4552;43.422;24.592;2022-10-16T10:17:12;101000.81;;;18.09;47.34
9035;BME280;4552;43.422;24.592;2022-10-16T10:19:41;101003.41;;;18.10;47.01
9035;BME280;4552;43.422;24.592;2022-10-16T10:22:28;101006.38;;;17.66;48.21
9035;BME280;4552;43.422;24.592;2022-10-16T10:25:21;100993.13;;;17.66;48.42
9035;BME280;4552;43.422;24.592;2022-10-16T10:28:16;100983.03;;;17.80;47.68
9035;BME280;4552;43.422;24.592;2022-10-16T10:30:54;100999.63;;;17.87;47.36
9035;BME280;4552;43.422;24.592;2022-10-16T10:33:29;100997.00;;;17.85;47.15
9035;BME280;4552;43.422;24.592;2022-10-16T10:36:05;100994.06;;;17.96;47.17
9035;BME280;4552;43.422;24.592;2022-10-16T10:38:45;100998.69;;;18.21;47.08
9035;BME280;4552;43.422;24.592;2022-10-16T10:41:27;100999.06;;;18.08;46.64
9035;BME280;4552;43.422;24.592;2022-10-16T10:44:05;100994.25;;;17.90;47.02
9035;BME280;4552;43.422;24.592;2022-10-16T10:46:41;100992.97;;;18.04;46.76
9035;BME280;4552;43.422;24.592;2022-10-16T10:49:31;100996.00;;;17.91;47.27
9035;BME280;4552;43.422;24.592;2022-10-16T10:52:18;100990.50;;;17.98;47.40
9035;BME280;4552;43.422;24.592;2022-10-16T10:54:58;100978.56;;;17.82;46.84
9035;BME280;4552;43.422;24.592;2022-10-16T10:57:35;100994.25;;;17.90;46.82
9035;BME280;4552;43.422;24.592;2022-10-16T11:00:16;100974.31;;;17.77;47.04
9035;BME280;4552;43.422;24.592;2022-10-16T11:02:53;100982.31;;;17.74;46.57
9035;BME280;4552;43.422;24.592;2022-10-16T11:05:28;100977.53;;;17.88;46.37
9035;BME280;4552;43.422;24.592;2022-10-16T11:08:01;100979.69;;;18.06;46.55
9035;BME280;4552;43.422;24.592;2022-10-16T11:10:34;100973.78;;;18.27;46.15
9035;BME280;4552;43.422;24.592;2022-10-16T11:13:14;100975.56;;;18.26;45.54
9035;BME280;4552;43.422;24.592;2022-10-16T11:15:47;100964.19;;;18.23;45.46
9035;BME280;4552;43.422;24.592;2022-10-16T11:18:19;100971.66;;;18.41;45.66
9035;BME280;4552;43.422;24.592;2022-10-16T11:20:51;100962.84;;;18.39;45.45
9035;BME280;4552;43.422;24.592;2022-10-16T11:23:25;100967.31;;;18.67;44.76
9035;BME280;4552;43.422;24.592;2022-10-16T11:25:54;100972.06;;;18.56;44.34
9035;BME280;4552;43.422;24.592;2022-10-16T11:28:29;100976.63;;;18.51;44.67
9035;BME280;4552;43.422;24.592;2022-10-16T11:31:02;100965.84;;;18.27;45.76
9035;BME280;4552;43.422;24.592;2022-10-16T11:33:36;100950.88;;;17.94;45.85
9035;BME280;4552;43.422;24.592;2022-10-16T11:36:11;100967.44;;;18.02;45.33
9035;BME280;4552;43.422;24.592;2022-10-16T11:38:44;100973.22;;;18.16;45.54
9035;BME280;4552;43.422;24.592;2022-10-16T11:41:24;100969.59;;;18.20;45.28
9035;BME280;4552;43.422;24.592;2022-10-16T11:44:09;100970.00;;;18.05;45.47
9035;BME280;4552;43.422;24.592;2022-10-16T11:46:40;100962.03;;;18.06;44.84
9035;BME280;4552;43.422;24.592;2022-10-16T11:49:13;100975.41;;;18.32;44.93
9035;BME280;4552;43.422;24.592;2022-10-16T11:51:45;100969.91;;;18.40;44.61
9035;BME280;4552;43.422;24.592;2022-10-16T11:54:22;100968.16;;;18.39;44.51
9035;BME280;4552;43.422;24.592;2022-10-16T11:56:55;100963.13;;;18.28;44.76
9035;BME280;4552;43.422;24.592;2022-10-16T11:59:30;100970.72;;;18.42;43.87
9035;BME280;4552;43.422;24.592;2022-10-16T12:02:11;100978.50;;;18.48;
9035;BME280;4552;43.422;24.592;2022-10-16T12:04:48;100962.81;;;18.40;43.78
9035;BME280;4552;43.422;24.592;2022-10-16T12:07:21;100967.09;;;18.46;43.69
9035;BME280;4552;43.422;24.592;2022-10-16T12:09:51;100963.97;;;18.61;43.07
9035;BME280;4552;43.422;24.592;2022-10-16T12:12:25;100980.31;;;18.76;43.02
9035;BME280;4552;43.422;24.592;2022-10-16T12:15:03;100979.66;;;18.39;42.60
9035;BME280;4552;43.422;24.592;2022-10-16T12:17:44;100965.63;;;18.34;42.92
9035;BME280;4552;43.422;24.592;2022-10-16T12:20:26;100970.59;;;18.46;43.39
9035;BME280;4552;43.422;24.592;2022-10-16T12:22:57;100958.81;;;18.56;43.76
9035;BME280;4552;43.422;24.592;2022-10-16T12:25:30;100970.03;;;18.66;43.28
9035;BME280;4552;43.422;24.592;2022-10-16T12:28:03;100980.25;;;18.78;43.04
9035;BME280;4552;43.422;24.592;2022-10-16T12:30:34;100954.91;;;18.68;42.17
9035;BME280;4552;43.422;24.592;2022-10-16T12:33:04;100956.84;;;18.63;41.47
9035;BME280;4552;43.422;24.592;2022-10-16T12:35:33;100960.31;;;18.65;41.87
9035;BME280;4552;43.422;24.592;2022-10-16T12:38:07;100972.41;;;18.75;41.80
9035;BME280;4552;43.422;24.592;2022-10-16T12:40:36;100968.44;;;18.88;41.33
9035;BME280;4552;43.422;24.592;2022-10-16T12:43:34;100978.41;;;18.51;41.90
9035;BME280;4552;43.422;24.592;2022-10-16T12:46:06;100971.25;;;18.83;41.66
9035;BME280;4552;43.422;24.592;2022-10-16T12:48:46;100974.56;;;18.90;40.67
9035;BME280;4552;43.422;24.592;2022-10-16T12:51:24;100977.44;;;19.12;40.76
9035;BME280;4552;43.422;24.592;2022-10-16T12:53:59;100971.34;;;19.08;40.70
9035;BME280;4552;43.422;24.592;2022-10-16T12:56:39;100976.75;;;19.05;40.50
9035;BME280;4552;43.422;24.592;2022-10-16T12:59:16;100971.78;;;18.94;40.25
9035;BME280;4552;43.422;24.592;2022-10-16T13:02:03;100957.16;;;19.09;40.04
9035;BME280;4552;43.422;24.592;2022-10-16T13:05:00;100972.13;;;19.12;40.07
9035;BME280;4552;43.422;24.592;2022-10-16T13:07:49;100973.75;;;19.16;39.33
9035;BME280;4552;43.422;24.592;2022-10-16T13:10:26;100979.22;;;19.11;39.63
9035;BME280;4552;43.422;24.592;2022-10-16T13:13:13;100976.16;;;18.95;40.37
9035;BME280;4552;43.422;24.592;2022-10-16T13:15:52;100969.19;;;18.64;41.99
9035;BME280;4552;43.422;24.592;2022-10-16T13:18:29;100978.84;;;18.94;41.67
9035;BME280;4552;43.422;24.592;2022-10-16T13:21:08;100987.56;;;18.99;40.96
9035;BME280;4552;43.422;24.592;2022-10-16T13:23:44;100978.19;;;19.15;41.43
9035;BME280;4552;43.422;24.592;2022-10-16T13:26:23;100975.19;;;19.27;40.05
9035;BME280;4552;43.422;24.592;2022-10-16T13:28:59;100982.69;;;19.13;39.58